createdAt,value
2022-09-30T00:01:57.388Z,28.71
2022-09-30T00:04:23.870Z,29.32
2022-09-30T00:06:50.209Z,29.07
2022-09-30T00:09:16.688Z,28.88
2022-09-30T00:11:43.164Z,28.82
2022-09-30T00:14:09.528Z,28.78
2022-09-30T00:16:35.937Z,28.78
2022-09-30T00:19:02.357Z,28.73
2022-09-30T00:21:28.697Z,28.74
2022-09-30T00:23:55.061Z,28.71
2022-09-30T00:26:21.554Z,29.02
2022-09-30T00:28:47.922Z,29.20
2022-09-30T00:31:14.264Z,28.92
2022-09-30T00:33:40.664Z,28.83
2022-09-30T00:36:07.049Z,28.79
2022-09-30T00:38:33.414Z,28.76
2022-09-30T00:40:59.912Z,28.77
2022-09-30T00:43:26.274Z,28.77
2022-09-30T00:45:52.621Z,28.81
2022-09-30T00:48:19.099Z,28.82
2022-09-30T00:50:45.462Z,29.39
2022-09-30T00:53:11.857Z,29.20
2022-09-30T00:55:38.323Z,29.03
2022-09-30T00:58:04.671Z,28.96
2022-09-30T01:00:31.049Z,28.93
2022-09-30T01:02:57.502Z,28.96
2022-09-30T01:05:23.863Z,28.92
2022-09-30T01:07:50.261Z,28.90
2022-09-30T01:10:16.753Z,28.92
2022-09-30T01:12:43.093Z,28.92
2022-09-30T01:15:09.418Z,29.55
2022-09-30T01:17:35.803Z,29.27
2022-09-30T01:20:02.196Z,29.07
2022-09-30T01:22:28.546Z,29.08
2022-09-30T01:24:55.027Z,29.10
2022-09-30T01:27:21.385Z,29.05
2022-09-30T01:29:47.751Z,29.05
2022-09-30T01:32:14.210Z,29.02
2022-09-30T01:34:40.610Z,29.01
2022-09-30T01:37:06.985Z,29.01
2022-09-30T01:39:34.911Z,29.56
2022-09-30T01:42:01.244Z,29.40
2022-09-30T01:44:27.601Z,29.21
2022-09-30T01:46:54.054Z,29.15
2022-09-30T01:49:20.551Z,29.10
2022-09-30T01:51:46.990Z,29.10
2022-09-30T01:54:13.359Z,29.07
2022-09-30T01:56:39.695Z,29.09
2022-09-30T01:59:08.928Z,29.07
2022-09-30T02:01:35.322Z,29.06
2022-09-30T02:04:01.658Z,29.45
2022-09-30T02:06:28.003Z,29.50
2022-09-30T02:08:54.380Z,29.29
2022-09-30T02:11:20.719Z,29.21
2022-09-30T02:13:47.073Z,29.16
2022-09-30T02:16:13.486Z,29.16
2022-09-30T02:18:39.902Z,29.15
2022-09-30T02:21:06.240Z,29.12
2022-09-30T02:23:32.768Z,29.18
2022-09-30T02:25:59.125Z,29.19
2022-09-30T02:28:25.479Z,29.33
2022-09-30T02:30:51.990Z,29.89
2022-09-30T02:33:18.331Z,29.42
2022-09-30T02:35:44.704Z,29.31
2022-09-30T02:38:11.174Z,29.24
2022-09-30T02:40:37.525Z,29.22
2022-09-30T02:43:03.852Z,29.22
2022-09-30T02:45:30.267Z,29.22
2022-09-30T02:47:56.604Z,29.19
2022-09-30T02:50:22.958Z,29.19
2022-09-30T02:52:49.323Z,29.20
2022-09-30T02:55:15.646Z,29.79
2022-09-30T02:57:42.021Z,29.61
2022-09-30T03:00:12.681Z,29.40
2022-09-30T03:02:39.559Z,29.31
2022-09-30T03:05:05.898Z,29.29
2022-09-30T03:07:32.383Z,29.29
2022-09-30T03:09:58.792Z,29.25
2022-09-30T03:12:25.180Z,29.26
2022-09-30T03:14:51.547Z,29.25
2022-09-30T03:17:17.913Z,29.25
2022-09-30T03:19:44.278Z,29.61
2022-09-30T03:22:10.778Z,29.72
2022-09-30T03:24:37.128Z,29.52
2022-09-30T03:27:03.484Z,29.45
2022-09-30T03:29:29.850Z,29.37
2022-09-30T03:31:56.249Z,29.36
2022-09-30T03:34:22.610Z,29.34
2022-09-30T03:36:48.990Z,29.35
2022-09-30T03:39:15.353Z,29.33
2022-09-30T03:41:41.691Z,29.35
2022-09-30T03:44:08.112Z,29.32
2022-09-30T03:46:34.521Z,29.95
2022-09-30T03:49:00.928Z,29.66
2022-09-30T03:51:27.292Z,29.52
2022-09-30T03:53:53.649Z,29.45
2022-09-30T03:56:20.013Z,29.42
2022-09-30T03:58:46.415Z,29.40
2022-09-30T04:01:12.797Z,29.36
2022-09-30T04:03:39.167Z,29.31
2022-09-30T04:06:05.592Z,29.25
2022-09-30T04:08:33.832Z,29.22
2022-09-30T04:11:00.399Z,29.50
2022-09-30T04:13:26.764Z,29.56
2022-09-30T04:15:53.163Z,29.32
2022-09-30T04:18:19.590Z,29.23
2022-09-30T04:20:45.980Z,29.18
2022-09-30T04:23:12.328Z,29.20
2022-09-30T04:25:38.659Z,29.18
2022-09-30T04:28:05.027Z,29.13
2022-09-30T04:30:33.517Z,29.10
2022-09-30T04:33:00.191Z,29.10
2022-09-30T04:35:26.686Z,29.32
2022-09-30T04:37:53.007Z,29.56
2022-09-30T04:40:19.358Z,29.25
2022-09-30T04:42:45.745Z,29.14
2022-09-30T04:45:12.089Z,29.08
2022-09-30T04:47:38.440Z,29.06
2022-09-30T04:50:04.795Z,29.05
2022-09-30T04:52:31.131Z,29.00
2022-09-30T04:54:57.492Z,28.99
2022-09-30T04:57:23.904Z,29.00
2022-09-30T04:59:50.244Z,29.15
2022-09-30T05:02:16.615Z,29.55
2022-09-30T05:04:43.048Z,29.20
2022-09-30T05:07:09.409Z,29.10
2022-09-30T05:09:38.189Z,29.05
2022-09-30T05:12:04.635Z,29.02
2022-09-30T05:14:31.003Z,28.98
2022-09-30T05:16:57.354Z,28.98
2022-09-30T05:19:23.866Z,28.99
2022-09-30T05:21:50.289Z,29.00
2022-09-30T05:24:16.641Z,29.10
2022-09-30T05:26:43.012Z,29.62
2022-09-30T05:29:09.470Z,29.21
2022-09-30T05:31:35.854Z,29.08
2022-09-30T05:34:02.284Z,29.03
2022-09-30T05:36:28.622Z,29.00
2022-09-30T05:38:54.960Z,28.98
2022-09-30T05:41:21.422Z,28.93
2022-09-30T05:43:47.867Z,28.92
2022-09-30T05:46:14.412Z,28.93
2022-09-30T05:48:41.005Z,29.00
2022-09-30T05:51:07.359Z,29.66
2022-09-30T05:53:33.708Z,29.18
2022-09-30T05:56:00.163Z,29.08
2022-09-30T05:58:26.532Z,28.93
2022-09-30T06:00:52.885Z,28.82
2022-09-30T06:03:19.314Z,28.77
2022-09-30T06:05:45.678Z,28.72
2022-09-30T06:08:12.091Z,28.67
2022-09-30T06:10:38.491Z,28.65
2022-09-30T06:13:04.858Z,28.80
2022-09-30T06:15:31.220Z,29.14
2022-09-30T06:17:57.608Z,28.76
2022-09-30T06:20:24.035Z,28.59
2022-09-30T06:22:50.474Z,28.50
2022-09-30T06:25:16.981Z,28.45
2022-09-30T06:27:43.340Z,28.38
2022-09-30T06:30:09.666Z,28.33
2022-09-30T06:32:36.057Z,28.32
2022-09-30T06:35:02.427Z,28.26
2022-09-30T06:37:28.808Z,28.48
2022-09-30T06:39:55.180Z,28.76
2022-09-30T06:42:21.509Z,28.46
2022-09-30T06:44:53.257Z,28.37
2022-09-30T06:47:25.249Z,28.29
2022-09-30T06:49:52.432Z,28.25
2022-09-30T06:52:18.894Z,28.24
2022-09-30T06:54:46.547Z,28.22
2022-09-30T06:57:12.965Z,28.21
2022-09-30T06:59:39.329Z,28.21
2022-09-30T07:02:05.751Z,28.79
2022-09-30T07:04:32.176Z,28.45
2022-09-30T07:06:58.517Z,28.31
2022-09-30T07:09:25.225Z,28.23
2022-09-30T07:11:51.652Z,28.20
2022-09-30T07:14:17.996Z,28.19
2022-09-30T07:16:44.477Z,28.18
2022-09-30T07:19:10.945Z,28.14
2022-09-30T07:21:37.312Z,28.14
2022-09-30T07:24:03.802Z,28.28
2022-09-30T07:26:30.167Z,28.63
2022-09-30T07:28:56.509Z,28.31
2022-09-30T07:31:38.276Z,28.23
2022-09-30T07:34:04.775Z,28.17
2022-09-30T07:36:33.905Z,28.14
2022-09-30T07:39:00.602Z,28.13
2022-09-30T07:41:27.072Z,28.10
2022-09-30T07:43:53.464Z,28.07
2022-09-30T07:46:19.887Z,28.06
2022-09-30T07:48:46.229Z,28.61
2022-09-30T07:51:12.600Z,28.39
2022-09-30T07:53:38.992Z,28.20
2022-09-30T07:56:05.375Z,28.15
2022-09-30T07:58:31.732Z,28.11
2022-09-30T08:00:58.153Z,28.10
2022-09-30T08:03:24.551Z,28.06
2022-09-30T08:05:50.983Z,28.06
2022-09-30T08:08:17.318Z,28.08
2022-09-30T08:10:43.670Z,28.27
2022-09-30T08:13:10.183Z,28.51
2022-09-30T08:15:36.586Z,28.26
2022-09-30T08:18:02.962Z,28.15
2022-09-30T08:20:29.432Z,28.12
2022-09-30T08:22:55.814Z,28.09
2022-09-30T08:25:22.369Z,28.08
2022-09-30T08:27:49.041Z,28.06
2022-09-30T08:30:15.397Z,28.05
2022-09-30T08:32:41.742Z,28.14
2022-09-30T08:35:08.111Z,28.74
2022-09-30T08:37:34.531Z,28.34
2022-09-30T08:40:00.869Z,28.18
2022-09-30T08:42:47.088Z,28.14
2022-09-30T08:45:13.645Z,28.08
2022-09-30T08:47:40.064Z,28.10
2022-09-30T08:50:06.414Z,28.07
2022-09-30T08:52:45.073Z,28.08
2022-09-30T08:55:15.098Z,28.08
2022-09-30T08:57:45.133Z,28.50
2022-09-30T09:00:13.663Z,28.39
2022-09-30T09:02:40.224Z,28.20
2022-09-30T09:05:06.641Z,28.14
2022-09-30T09:07:32.989Z,28.08
2022-09-30T09:09:59.339Z,28.06
2022-09-30T09:12:25.678Z,28.07
2022-09-30T09:14:52.016Z,28.04
2022-09-30T09:17:18.522Z,28.04
2022-09-30T09:19:44.870Z,28.18
2022-09-30T09:22:11.252Z,28.65
2022-09-30T09:24:37.729Z,28.27
2022-09-30T09:27:04.091Z,28.17
2022-09-30T09:29:30.507Z,28.14
2022-09-30T09:31:56.923Z,28.10
2022-09-30T09:34:23.280Z,28.14
2022-09-30T09:36:49.630Z,28.12
2022-09-30T09:39:16.319Z,28.10
2022-09-30T09:41:42.654Z,28.13
2022-09-30T09:44:09.012Z,28.52
2022-09-30T09:46:35.406Z,28.49
2022-09-30T09:49:01.777Z,28.29
2022-09-30T09:51:28.142Z,28.25
2022-09-30T09:53:54.639Z,28.21
2022-09-30T09:56:21.008Z,28.21
2022-09-30T09:58:47.430Z,28.19
2022-09-30T10:01:13.895Z,28.15
2022-09-30T10:03:40.285Z,28.18
2022-09-30T10:06:06.644Z,28.19
2022-09-30T10:08:33.027Z,28.72
2022-09-30T10:10:59.404Z,28.42
2022-09-30T10:13:25.749Z,28.29
2022-09-30T10:15:52.323Z,28.23
2022-09-30T10:18:18.690Z,28.22
2022-09-30T10:23:16.456Z,28.19
2022-09-30T10:25:42.870Z,28.19
2022-09-30T10:28:09.329Z,28.18
2022-09-30T10:30:35.724Z,28.38
2022-09-30T10:33:02.105Z,28.63
2022-09-30T10:35:28.467Z,28.37
2022-09-30T10:37:54.946Z,28.30
2022-09-30T10:40:21.328Z,28.25
2022-09-30T10:42:47.674Z,28.24
2022-09-30T10:45:14.036Z,28.25
2022-09-30T10:47:40.377Z,28.30
2022-09-30T10:50:06.713Z,28.31
2022-09-30T10:52:33.108Z,28.28
2022-09-30T10:54:59.454Z,28.61
2022-09-30T10:57:25.830Z,28.54
2022-09-30T10:59:52.225Z,28.39
2022-09-30T11:02:18.722Z,28.33
2022-09-30T11:04:45.123Z,28.27
2022-09-30T11:07:11.643Z,28.27
2022-09-30T11:09:38.087Z,28.25
2022-09-30T11:12:04.453Z,28.22
2022-09-30T11:14:30.859Z,28.21
2022-09-30T11:16:57.245Z,28.23
2022-09-30T11:19:23.627Z,28.68
2022-09-30T11:21:50.092Z,28.50
2022-09-30T11:24:16.470Z,28.32
2022-09-30T11:26:42.974Z,28.26
2022-09-30T11:29:09.463Z,28.21
2022-09-30T11:31:35.864Z,28.21
2022-09-30T11:34:02.244Z,28.19
2022-09-30T11:36:28.956Z,28.17
2022-09-30T11:38:55.563Z,28.15
2022-09-30T11:41:21.962Z,28.22
2022-09-30T11:43:48.405Z,28.79
2022-09-30T11:46:14.831Z,28.37
2022-09-30T11:48:41.265Z,28.28
2022-09-30T11:51:07.679Z,28.19
2022-09-30T11:53:34.067Z,28.15
2022-09-30T11:56:00.422Z,28.17
2022-09-30T11:58:41.129Z,28.14
2022-09-30T12:01:08.419Z,28.14
2022-09-30T12:03:34.862Z,28.15
2022-09-30T12:06:01.354Z,28.34
2022-09-30T12:08:27.709Z,28.57
2022-09-30T12:10:54.203Z,28.34
2022-09-30T12:13:20.556Z,28.23
2022-09-30T12:15:46.906Z,28.19
2022-09-30T12:18:13.313Z,28.18
2022-09-30T12:20:39.678Z,28.17
2022-09-30T12:23:06.016Z,28.15
2022-09-30T12:25:32.424Z,28.20
2022-09-30T12:27:58.851Z,28.17
2022-09-30T12:30:25.239Z,28.43
2022-09-30T12:32:51.605Z,28.56
2022-09-30T12:35:17.968Z,28.32
2022-09-30T12:37:44.331Z,28.24
2022-09-30T12:40:10.904Z,28.20
2022-09-30T12:42:37.594Z,28.20
2022-09-30T12:45:04.036Z,28.20
2022-09-30T12:47:30.540Z,28.20
2022-09-30T12:49:56.937Z,28.18
2022-09-30T12:52:23.277Z,28.20
2022-09-30T12:54:49.665Z,28.52
2022-09-30T12:57:16.072Z,28.53
2022-09-30T12:59:42.422Z,28.34
2022-09-30T13:02:08.923Z,28.26
2022-09-30T13:04:35.331Z,28.29
2022-09-30T13:07:01.732Z,28.30
2022-09-30T13:09:28.137Z,28.24
2022-09-30T13:11:54.487Z,28.21
2022-09-30T13:14:25.713Z,28.18
2022-09-30T13:16:52.536Z,28.19
2022-09-30T13:19:19.002Z,28.61
2022-09-30T13:21:45.387Z,28.52
2022-09-30T13:24:11.811Z,28.32
2022-09-30T13:26:38.185Z,28.26
2022-09-30T13:29:04.579Z,28.24
2022-09-30T13:31:31.017Z,28.22
2022-09-30T13:33:57.457Z,28.21
2022-09-30T13:36:23.815Z,28.17
2022-09-30T13:38:50.202Z,28.19
2022-09-30T13:41:16.561Z,28.20
2022-09-30T13:43:42.892Z,28.65
2022-09-30T13:46:09.337Z,28.46
2022-09-30T13:48:35.794Z,28.32
2022-09-30T13:51:02.142Z,28.24
2022-09-30T13:53:28.552Z,28.21
2022-09-30T13:55:54.933Z,28.21
2022-09-30T13:58:21.307Z,28.20
2022-09-30T14:00:47.771Z,28.20
2022-09-30T14:03:14.185Z,28.20
2022-09-30T14:05:40.592Z,28.25
2022-09-30T14:08:07.233Z,28.75
2022-09-30T14:10:33.569Z,28.46
2022-09-30T14:12:59.956Z,28.33
2022-09-30T14:15:26.331Z,28.31
2022-09-30T14:17:52.680Z,28.25
2022-09-30T14:20:19.033Z,28.23
2022-09-30T14:22:45.529Z,28.21
2022-09-30T14:25:11.910Z,28.23
2022-09-30T14:27:38.267Z,28.22
2022-09-30T14:30:04.659Z,28.29
2022-09-30T14:32:31.005Z,28.84
2022-09-30T14:34:57.359Z,28.40
2022-09-30T14:37:23.796Z,28.31
2022-09-30T14:39:50.146Z,28.26
2022-09-30T14:42:16.505Z,28.22
2022-09-30T14:44:42.962Z,28.29
2022-09-30T14:47:09.310Z,28.30
2022-09-30T14:49:37.989Z,28.24
2022-09-30T14:52:04.350Z,28.24
2022-09-30T14:54:30.703Z,28.38
2022-09-30T14:56:57.050Z,28.74
2022-09-30T14:59:23.597Z,28.40
2022-09-30T15:01:49.935Z,28.31
2022-09-30T15:04:16.372Z,28.24
2022-09-30T15:06:42.796Z,28.20
2022-09-30T15:09:09.234Z,28.18
2022-09-30T15:11:39.583Z,28.20
2022-09-30T15:14:06.401Z,28.14
2022-09-30T15:16:33.043Z,28.15
2022-09-30T15:18:59.595Z,28.44
2022-09-30T15:21:25.962Z,28.56
2022-09-30T15:23:52.595Z,28.31
2022-09-30T15:26:18.960Z,28.23
2022-09-30T15:28:45.357Z,28.16
2022-09-30T15:31:11.790Z,28.14
2022-09-30T15:33:38.192Z,28.13
2022-09-30T15:36:04.622Z,28.12
2022-09-30T15:38:30.999Z,28.12
2022-09-30T15:40:57.348Z,28.12
2022-09-30T15:43:23.789Z,28.48
2022-09-30T15:45:50.215Z,28.46
2022-09-30T15:48:16.643Z,28.25
2022-09-30T15:50:43.100Z,28.20
2022-09-30T15:53:09.470Z,28.16
2022-09-30T15:55:35.825Z,28.14
2022-09-30T15:58:02.197Z,28.13
2022-09-30T16:00:28.620Z,28.11
2022-09-30T16:02:55.021Z,28.11
2022-09-30T16:05:21.467Z,28.11
2022-09-30T16:07:47.825Z,28.61
2022-09-30T16:10:14.175Z,28.37
2022-09-30T16:12:40.645Z,28.22
2022-09-30T16:15:06.994Z,28.16
2022-09-30T16:17:33.346Z,28.12
2022-09-30T16:19:59.867Z,28.10
2022-09-30T16:22:26.194Z,28.11
2022-09-30T16:24:52.582Z,28.08
2022-09-30T16:27:18.933Z,28.14
2022-09-30T16:29:45.279Z,28.32
2022-09-30T16:32:11.625Z,28.98
2022-09-30T16:34:37.987Z,28.54
2022-09-30T16:37:04.332Z,28.45
2022-09-30T16:39:30.672Z,28.44
2022-09-30T16:41:57.048Z,28.42
2022-09-30T16:44:23.431Z,28.42
2022-09-30T16:46:49.772Z,28.44
2022-09-30T16:49:16.167Z,28.44
2022-09-30T16:51:42.500Z,28.44
2022-09-30T16:54:08.859Z,28.52
2022-09-30T16:56:35.506Z,29.14
2022-09-30T16:59:01.984Z,28.74
2022-09-30T17:01:28.345Z,28.65
2022-09-30T17:03:54.721Z,28.60
2022-09-30T17:06:21.070Z,28.61
2022-09-30T17:08:47.436Z,28.65
2022-09-30T17:11:13.911Z,28.64
2022-09-30T17:13:40.264Z,28.62
2022-09-30T17:16:06.640Z,28.64
2022-09-30T17:18:33.076Z,28.70
2022-09-30T17:20:59.418Z,29.30
2022-09-30T17:23:25.803Z,28.90
2022-09-30T17:25:52.278Z,28.77
2022-09-30T17:28:18.719Z,28.72
2022-09-30T17:30:45.119Z,28.71
2022-09-30T17:33:11.495Z,28.71
2022-09-30T17:35:37.855Z,28.71
2022-09-30T17:38:04.217Z,28.65
2022-09-30T17:40:30.766Z,28.69
2022-09-30T17:42:58.678Z,28.70
2022-09-30T17:45:25.280Z,29.21
2022-09-30T17:47:51.732Z,29.02
2022-09-30T17:50:18.079Z,28.85
2022-09-30T17:52:44.454Z,28.79
2022-09-30T17:55:10.831Z,28.75
2022-09-30T17:57:37.209Z,28.73
2022-09-30T18:00:03.554Z,28.77
2022-09-30T18:02:30.030Z,28.70
2022-09-30T18:04:56.453Z,28.76
2022-09-30T18:07:22.807Z,28.82
2022-09-30T18:09:49.330Z,28.99
2022-09-30T18:12:15.674Z,29.71
2022-09-30T18:14:42.063Z,29.27
2022-09-30T18:17:08.564Z,29.18
2022-09-30T18:19:34.921Z,29.12
2022-09-30T18:22:01.272Z,29.04
2022-09-30T18:24:27.726Z,29.08
2022-09-30T18:26:54.064Z,29.08
2022-09-30T18:29:20.395Z,29.08
2022-09-30T18:31:46.805Z,29.06
2022-09-30T18:34:13.208Z,29.10
2022-09-30T18:36:39.552Z,29.22
2022-09-30T18:39:06.055Z,29.89
2022-09-30T18:41:32.864Z,29.33
2022-09-30T18:44:00.920Z,29.27
2022-09-30T18:46:27.318Z,29.18
2022-09-30T18:48:53.688Z,29.22
2022-09-30T18:51:20.032Z,29.28
2022-09-30T18:53:46.419Z,29.26
2022-09-30T18:56:12.763Z,29.27
2022-09-30T18:58:39.097Z,29.29
2022-09-30T19:01:05.542Z,29.34
2022-09-30T19:03:31.959Z,29.48
2022-09-30T19:05:58.298Z,30.04
2022-09-30T19:08:24.683Z,29.65
2022-09-30T19:10:51.028Z,29.53
2022-09-30T19:13:17.380Z,29.54
2022-09-30T19:15:43.869Z,29.55
2022-09-30T19:18:10.217Z,29.51
2022-09-30T19:20:36.561Z,29.51
2022-09-30T19:23:02.948Z,29.44
2022-09-30T19:25:29.330Z,29.50
2022-09-30T19:27:55.767Z,29.49
2022-09-30T19:30:22.158Z,29.48
2022-09-30T19:32:48.559Z,30.06
2022-09-30T19:35:14.903Z,29.84
2022-09-30T19:37:43.399Z,29.69
2022-09-30T19:40:20.871Z,29.62
2022-09-30T19:42:48.054Z,29.67
2022-09-30T19:45:14.400Z,29.61
2022-09-30T19:47:40.749Z,29.63
2022-09-30T19:50:07.241Z,29.64
2022-09-30T19:52:33.736Z,29.61
2022-09-30T19:55:12.992Z,29.62
2022-09-30T19:57:42.378Z,29.56
2022-09-30T20:00:08.720Z,29.76
2022-09-30T20:02:35.092Z,30.17
2022-09-30T20:05:01.625Z,29.70
2022-09-30T20:07:27.980Z,29.71
2022-09-30T20:09:54.327Z,29.69
2022-09-30T20:12:20.697Z,29.64
2022-09-30T20:14:47.051Z,29.65
2022-09-30T20:17:13.386Z,29.65
2022-09-30T20:19:39.988Z,29.62
2022-09-30T20:22:06.362Z,29.61
2022-09-30T20:24:32.756Z,29.65
2022-09-30T20:26:59.178Z,29.62
2022-09-30T20:29:25.548Z,30.24
2022-09-30T20:31:51.926Z,29.90
2022-09-30T20:34:18.300Z,29.81
2022-09-30T20:36:44.653Z,29.75
2022-09-30T20:39:10.986Z,29.72
2022-09-30T20:41:37.373Z,29.69
2022-09-30T20:44:03.732Z,29.70
2022-09-30T20:46:30.062Z,29.69
2022-09-30T20:48:56.541Z,29.72
2022-09-30T20:51:22.870Z,29.68
2022-09-30T20:53:49.229Z,29.72
2022-09-30T20:56:15.649Z,30.22
2022-09-30T20:58:42.015Z,29.97
2022-09-30T21:01:08.382Z,29.85
2022-09-30T21:03:34.789Z,29.78
2022-09-30T21:06:01.143Z,29.75
2022-09-30T21:08:27.465Z,29.71
2022-09-30T21:10:53.964Z,29.68
2022-09-30T21:13:20.286Z,29.70
2022-09-30T21:15:46.641Z,29.73
2022-09-30T21:18:13.044Z,29.64
2022-09-30T21:20:39.426Z,29.66
2022-09-30T21:23:05.768Z,29.67
2022-09-30T21:25:32.242Z,30.27
2022-09-30T21:27:58.672Z,29.99
2022-09-30T21:30:25.071Z,29.86
2022-09-30T21:32:51.553Z,29.81
2022-09-30T21:35:17.958Z,29.74
2022-09-30T21:37:44.336Z,29.73
2022-09-30T21:40:10.768Z,29.76
2022-09-30T21:42:37.113Z,29.73
2022-09-30T21:45:03.484Z,29.71
2022-09-30T21:47:30.036Z,29.77
2022-09-30T21:49:56.373Z,29.78
2022-09-30T21:52:22.735Z,29.77
2022-09-30T21:54:49.224Z,30.40
2022-09-30T21:57:15.598Z,29.95
2022-09-30T21:59:42.005Z,29.87
2022-09-30T22:02:08.537Z,29.83
2022-09-30T22:04:34.901Z,29.77
2022-09-30T22:07:01.241Z,29.77
2022-09-30T22:09:27.598Z,29.78
2022-09-30T22:11:53.955Z,29.76
2022-09-30T22:14:20.299Z,29.75
2022-09-30T22:16:46.726Z,29.74
2022-09-30T22:19:13.154Z,29.74
2022-09-30T22:21:39.486Z,30.26
2022-09-30T22:24:05.849Z,30.11
2022-09-30T22:26:32.192Z,29.87
2022-09-30T22:28:58.529Z,29.92
2022-09-30T22:31:25.010Z,29.84
2022-09-30T22:33:51.378Z,29.76
2022-09-30T22:36:17.721Z,29.77
2022-09-30T22:38:44.106Z,29.79
2022-09-30T22:41:10.438Z,29.79
2022-09-30T22:43:36.788Z,29.78
2022-09-30T22:46:03.322Z,29.75
2022-09-30T22:48:29.808Z,29.73
2022-09-30T22:50:56.145Z,30.35
2022-09-30T22:53:22.633Z,30.05
2022-09-30T22:55:49.012Z,29.92
2022-09-30T22:58:15.348Z,29.86
2022-09-30T23:00:41.735Z,29.84
2022-09-30T23:03:08.079Z,29.81
2022-09-30T23:05:34.445Z,29.83
2022-09-30T23:08:00.845Z,29.79
2022-09-30T23:10:27.208Z,29.81
2022-09-30T23:12:53.571Z,29.77
2022-09-30T23:15:19.989Z,29.75
2022-09-30T23:17:46.355Z,30.19
2022-09-30T23:20:12.686Z,30.14
2022-09-30T23:22:39.135Z,29.99
2022-09-30T23:25:05.524Z,29.90
2022-09-30T23:27:31.908Z,29.85
2022-09-30T23:29:58.401Z,29.83
2022-09-30T23:32:24.741Z,29.77
2022-09-30T23:34:51.076Z,29.79
2022-09-30T23:37:17.467Z,29.76
2022-09-30T23:39:43.820Z,29.77
2022-09-30T23:42:10.159Z,29.78
2022-09-30T23:44:36.585Z,29.77
2022-09-30T23:47:02.921Z,30.35
2022-09-30T23:49:29.263Z,30.09
2022-09-30T23:51:55.614Z,29.94
2022-09-30T23:54:21.968Z,29.88
2022-09-30T23:56:48.362Z,29.86
2022-09-30T23:59:16.384Z,29.85
